createdAt,value
2022-08-20T00:00:35.009Z,21.81
2022-08-20T00:02:42.668Z,21.80
2022-08-20T00:04:44.672Z,21.79
2022-08-20T00:06:46.587Z,21.79
2022-08-20T00:08:48.519Z,21.81
2022-08-20T00:10:55.627Z,21.88
2022-08-20T00:12:57.993Z,21.83
2022-08-20T00:15:00.181Z,21.91
2022-08-20T00:17:03.490Z,21.89
2022-08-20T00:19:09.461Z,21.95
2022-08-20T00:21:18.657Z,21.96
2022-08-20T00:23:21.730Z,21.94
2022-08-20T00:25:26.415Z,21.91
2022-08-20T00:27:28.146Z,21.85
2022-08-20T00:29:29.904Z,21.89
2022-08-20T00:31:31.791Z,21.69
2022-08-20T00:33:34.264Z,21.67
2022-08-20T00:35:40.216Z,21.75
2022-08-20T00:37:42.582Z,21.77
2022-08-20T00:39:44.773Z,21.67
2022-08-20T00:41:46.532Z,21.67
2022-08-20T00:44:05.338Z,21.70
2022-08-20T00:46:12.124Z,21.68
2022-08-20T00:48:13.834Z,21.70
2022-08-20T00:50:20.700Z,21.73
2022-08-20T00:52:22.562Z,21.62
2022-08-20T00:54:29.035Z,21.56
2022-08-20T00:56:32.949Z,21.37
2022-08-20T00:58:37.083Z,21.43
2022-08-20T01:00:43.179Z,21.33
2022-08-20T01:02:46.319Z,21.26
2022-08-20T01:04:48.666Z,21.52
2022-08-20T01:06:50.476Z,21.61
2022-08-20T01:08:52.957Z,21.69
2022-08-20T01:10:56.000Z,21.69
2022-08-20T01:12:59.662Z,21.58
2022-08-20T01:15:03.949Z,21.64
2022-08-20T01:17:08.397Z,21.71
2022-08-20T01:19:29.357Z,21.72
2022-08-20T01:21:32.147Z,21.73
2022-08-20T01:23:56.995Z,21.63
2022-08-20T01:26:04.438Z,21.73
2022-08-20T01:28:06.607Z,21.78
2022-08-20T01:30:09.035Z,21.84
2022-08-20T01:32:10.793Z,21.87
2022-08-20T01:34:16.419Z,21.82
2022-08-20T01:36:24.037Z,21.68
2022-08-20T01:38:25.758Z,21.76
2022-08-20T01:40:45.982Z,21.86
2022-08-20T01:42:53.983Z,21.76
2022-08-20T01:45:01.810Z,21.75
2022-08-20T01:47:38.299Z,21.59
2022-08-20T01:49:42.396Z,21.54
2022-08-20T01:51:44.353Z,21.38
2022-08-20T01:53:52.938Z,21.62
2022-08-20T01:55:55.226Z,21.63
2022-08-20T01:57:57.809Z,21.66
2022-08-20T01:59:59.919Z,21.62
2022-08-20T02:02:02.037Z,21.72
2022-08-20T02:04:07.768Z,21.54
2022-08-20T02:06:18.245Z,21.83
2022-08-20T02:08:21.709Z,21.87
2022-08-20T02:10:23.488Z,21.92
2022-08-20T02:12:26.088Z,21.91
2022-08-20T02:14:28.269Z,21.80
2022-08-20T02:16:34.122Z,21.83
2022-08-20T02:18:36.337Z,21.86
2022-08-20T02:20:39.423Z,21.91
2022-08-20T02:22:55.217Z,21.97
2022-08-20T02:24:57.146Z,22.01
2022-08-20T02:26:59.109Z,22.06
2022-08-20T02:29:09.552Z,22.06
2022-08-20T02:31:11.862Z,21.99
2022-08-20T02:33:15.555Z,21.83
2022-08-20T02:35:18.110Z,21.79
2022-08-20T02:37:20.362Z,21.85
2022-08-20T02:39:22.121Z,21.78
2022-08-20T02:41:23.942Z,21.44
2022-08-20T02:43:25.810Z,21.26
2022-08-20T02:45:29.097Z,21.23
2022-08-20T02:47:30.803Z,21.27
2022-08-20T02:49:32.795Z,21.33
2022-08-20T02:51:34.741Z,21.42
2022-08-20T02:53:39.274Z,21.51
2022-08-20T02:55:41.401Z,21.53
2022-08-20T02:57:44.006Z,21.56
2022-08-20T02:59:46.618Z,21.53
2022-08-20T03:01:59.996Z,21.69
2022-08-20T03:04:02.984Z,21.73
2022-08-20T03:06:07.266Z,21.75
2022-08-20T03:08:11.710Z,21.84
2022-08-20T03:10:13.889Z,21.83
2022-08-20T03:12:15.643Z,21.94
2022-08-20T03:14:17.583Z,21.88
2022-08-20T03:16:19.748Z,21.91
2022-08-20T03:18:23.215Z,21.83
2022-08-20T03:20:26.502Z,21.86
2022-08-20T03:22:28.353Z,21.88
2022-08-20T03:24:30.075Z,21.87
2022-08-20T03:26:31.916Z,21.83
2022-08-20T03:28:34.346Z,21.91
2022-08-20T03:32:39.424Z,22.02
2022-08-20T03:34:41.249Z,22.02
2022-08-20T03:36:43.034Z,21.99
2022-08-20T03:38:44.966Z,21.89
2022-08-20T03:40:48.121Z,22.01
2022-08-20T03:42:50.343Z,22.09
2022-08-20T03:44:58.650Z,22.16
2022-08-20T03:47:04.259Z,22.22
2022-08-20T03:49:06.343Z,22.23
2022-08-20T03:51:08.326Z,22.31
2022-08-20T03:53:13.197Z,22.28
2022-08-20T03:55:16.694Z,22.28
2022-08-20T03:57:18.806Z,22.30
2022-08-20T03:59:20.536Z,22.31
2022-08-20T04:01:37.085Z,22.12
2022-08-20T04:03:44.375Z,22.01
2022-08-20T04:05:46.719Z,21.99
2022-08-20T04:07:48.457Z,22.01
2022-08-20T04:09:50.472Z,21.91
2022-08-20T04:11:52.232Z,21.87
2022-08-20T04:13:54.059Z,21.92
2022-08-20T04:15:56.867Z,22.04
2022-08-20T04:17:58.856Z,22.09
2022-08-20T04:20:04.478Z,22.04
2022-08-20T04:22:07.266Z,21.97
2022-08-20T04:24:08.993Z,22.01
2022-08-20T04:26:26.272Z,21.92
2022-08-20T04:28:28.371Z,21.88
2022-08-20T04:30:30.642Z,21.82
2022-08-20T04:32:32.391Z,21.85
2022-08-20T04:34:35.040Z,21.82
2022-08-20T04:36:36.791Z,21.90
2022-08-20T04:38:47.800Z,21.94
2022-08-20T04:40:52.002Z,21.85
2022-08-20T04:42:53.971Z,21.94
2022-08-20T04:44:55.807Z,21.96
2022-08-20T04:46:58.863Z,21.93
2022-08-20T04:49:00.980Z,21.89
2022-08-20T04:51:02.724Z,21.90
2022-08-20T04:53:08.507Z,21.94
2022-08-20T04:55:11.330Z,21.96
2022-08-20T04:57:13.076Z,21.98
2022-08-20T04:59:15.193Z,21.97
2022-08-20T05:01:17.441Z,22.05
2022-08-20T05:05:21.423Z,21.92
2022-08-20T05:07:23.148Z,21.92
2022-08-20T05:09:24.881Z,21.88
2022-08-20T05:11:36.067Z,22.00
2022-08-20T05:13:38.544Z,21.95
2022-08-20T05:15:40.950Z,21.81
2022-08-20T05:17:43.765Z,21.83
2022-08-20T05:19:45.538Z,21.93
2022-08-20T05:21:47.307Z,22.11
2022-08-20T05:23:49.611Z,22.16
2022-08-20T05:25:51.567Z,22.20
2022-08-20T05:27:57.809Z,22.19
2022-08-20T05:30:13.580Z,22.24
2022-08-20T05:32:15.571Z,22.26
2022-08-20T05:34:17.342Z,22.24
2022-08-20T05:36:19.166Z,22.30
2022-08-20T05:38:27.053Z,22.34
2022-08-20T05:40:28.994Z,22.35
2022-08-20T05:42:30.957Z,22.37
2022-08-20T05:44:32.690Z,22.16
2022-08-20T05:46:34.422Z,22.29
2022-08-20T05:48:36.421Z,22.08
2022-08-20T05:50:44.154Z,22.03
2022-08-20T05:52:45.868Z,22.14
2022-08-20T05:54:47.628Z,22.22
2022-08-20T05:56:50.072Z,22.13
2022-08-20T05:58:51.822Z,22.08
2022-08-20T06:00:55.199Z,22.08
2022-08-20T06:02:57.063Z,21.93
2022-08-20T06:04:58.814Z,21.89
2022-08-20T06:07:07.820Z,21.89
2022-08-20T06:09:09.975Z,22.03
2022-08-20T06:11:11.732Z,21.98
2022-08-20T06:13:14.162Z,21.83
2022-08-20T06:15:16.194Z,21.91
2022-08-20T06:17:19.207Z,21.98
2022-08-20T06:19:26.169Z,21.94
2022-08-20T06:21:28.393Z,22.03
2022-08-20T06:23:45.538Z,22.02
2022-08-20T06:25:52.909Z,22.17
2022-08-20T06:27:54.667Z,22.21
2022-08-20T06:29:56.646Z,22.26
2022-08-20T06:31:58.474Z,22.29
2022-08-20T06:34:00.193Z,22.35
2022-08-20T06:36:02.127Z,22.48
2022-08-20T06:38:05.091Z,22.51
2022-08-20T06:40:12.958Z,22.57
2022-08-20T06:42:14.848Z,22.65
2022-08-20T06:44:22.825Z,22.68
2022-08-20T06:46:24.582Z,22.81
2022-08-20T06:48:26.815Z,22.70
2022-08-20T06:50:33.590Z,22.71
2022-08-20T06:52:51.921Z,22.72
2022-08-20T06:54:55.183Z,22.67
2022-08-20T06:56:57.453Z,22.86
2022-08-20T06:58:59.921Z,22.70
2022-08-20T07:01:05.033Z,22.86
2022-08-20T07:03:12.436Z,23.06
2022-08-20T07:05:14.291Z,23.27
2022-08-20T07:07:19.895Z,23.19
2022-08-20T07:09:22.429Z,23.31
2022-08-20T07:11:28.206Z,23.32
2022-08-20T07:13:30.476Z,23.28
2022-08-20T07:15:32.752Z,23.31
2022-08-20T07:17:35.065Z,23.45
2022-08-20T07:19:36.940Z,23.80
2022-08-20T07:21:39.460Z,24.03
2022-08-20T07:23:41.245Z,24.07
2022-08-20T07:25:44.513Z,24.09
2022-08-20T07:27:47.332Z,23.93
2022-08-20T07:29:51.364Z,23.86
2022-08-20T07:31:53.279Z,24.00
2022-08-20T07:33:55.172Z,24.42
2022-08-20T07:35:59.031Z,24.62
2022-08-20T07:38:01.021Z,24.67
2022-08-20T07:40:03.166Z,24.63
2022-08-20T07:42:05.128Z,24.93
2022-08-20T07:44:07.153Z,24.98
2022-08-20T07:46:09.368Z,25.07
2022-08-20T07:48:14.234Z,25.24
2022-08-20T07:50:33.167Z,25.05
2022-08-20T07:52:35.229Z,25.44
2022-08-20T07:54:37.258Z,25.39
2022-08-20T07:56:38.979Z,25.48
2022-08-20T07:58:47.117Z,25.39
2022-08-20T08:00:49.135Z,25.37
2022-08-20T08:02:50.880Z,24.99
2022-08-20T08:04:52.788Z,25.14
2022-08-20T08:06:55.592Z,25.16
2022-08-20T08:09:06.836Z,24.40
2022-08-20T08:11:08.985Z,24.66
2022-08-20T08:13:13.288Z,24.82
2022-08-20T08:15:25.039Z,25.02
2022-08-20T08:17:27.994Z,25.40
2022-08-20T08:19:33.825Z,25.21
2022-08-20T08:21:35.613Z,25.43
2022-08-20T08:23:37.416Z,25.58
2022-08-20T08:25:42.776Z,25.61
2022-08-20T08:27:44.741Z,25.66
2022-08-20T08:29:46.575Z,25.63
2022-08-20T08:31:48.699Z,25.64
2022-08-20T08:33:50.440Z,25.80
2022-08-20T08:35:52.431Z,25.89
2022-08-20T08:37:54.349Z,25.62
2022-08-20T08:39:56.167Z,25.65
2022-08-20T08:41:59.752Z,25.89
2022-08-20T08:44:07.239Z,25.94
2022-08-20T08:46:11.297Z,26.10
2022-08-20T08:48:18.686Z,26.32
2022-08-20T08:50:53.859Z,26.30
2022-08-20T08:52:58.385Z,25.99
2022-08-20T08:55:05.139Z,26.33
2022-08-20T08:57:08.709Z,26.68
2022-08-20T08:59:10.473Z,26.80
2022-08-20T09:01:54.753Z,26.96
2022-08-20T09:03:39.957Z,27.24
2022-08-20T09:05:46.369Z,27.03
2022-08-20T09:07:53.048Z,26.47
2022-08-20T09:09:56.391Z,26.61
2022-08-20T09:12:10.760Z,26.88
2022-08-20T09:14:12.739Z,27.03
2022-08-20T09:16:15.277Z,27.18
2022-08-20T09:18:17.052Z,27.27
2022-08-20T09:20:19.349Z,27.32
2022-08-20T09:22:23.143Z,27.14
2022-08-20T09:24:25.247Z,26.77
2022-08-20T09:26:29.297Z,26.67
2022-08-20T09:28:34.850Z,26.67
2022-08-20T09:30:36.989Z,26.48
2022-08-20T09:32:40.641Z,26.25
2022-08-20T09:34:44.995Z,26.43
2022-08-20T09:36:46.744Z,26.33
2022-08-20T09:38:48.700Z,26.77
2022-08-20T09:40:50.498Z,26.80
2022-08-20T09:42:52.409Z,26.78
2022-08-20T09:44:55.287Z,26.65
2022-08-20T09:46:57.083Z,26.50
2022-08-20T09:48:58.809Z,26.44
2022-08-20T09:51:01.190Z,26.61
2022-08-20T09:53:05.425Z,26.77
2022-08-20T09:55:15.265Z,26.72
2022-08-20T09:57:18.899Z,26.37
2022-08-20T09:59:20.711Z,26.61
2022-08-20T10:01:23.335Z,26.64
2022-08-20T10:03:25.176Z,26.27
2022-08-20T10:05:27.442Z,26.35
2022-08-20T10:07:29.214Z,26.30
2022-08-20T10:09:31.011Z,26.19
2022-08-20T10:11:33.086Z,25.83
2022-08-20T10:13:34.815Z,26.08
2022-08-20T10:15:36.733Z,26.36
2022-08-20T10:17:43.388Z,26.49
2022-08-20T10:19:45.137Z,26.39
2022-08-20T10:21:46.956Z,26.67
2022-08-20T10:23:48.851Z,26.92
2022-08-20T10:25:50.590Z,26.71
2022-08-20T10:27:52.643Z,26.73
2022-08-20T10:29:54.531Z,27.05
2022-08-20T10:31:57.479Z,27.29
2022-08-20T10:33:59.425Z,27.17
2022-08-20T10:36:13.019Z,27.33
2022-08-20T10:38:14.775Z,27.35
2022-08-20T10:40:16.797Z,27.30
2022-08-20T10:42:18.775Z,27.39
2022-08-20T10:44:20.521Z,27.24
2022-08-20T10:46:22.382Z,27.23
2022-08-20T10:48:24.800Z,27.31
2022-08-20T10:50:30.267Z,27.30
2022-08-20T10:52:32.575Z,27.32
2022-08-20T10:54:34.392Z,27.44
2022-08-20T10:56:36.172Z,27.41
2022-08-20T10:58:39.936Z,27.35
2022-08-20T11:00:43.159Z,27.27
2022-08-20T11:02:44.956Z,27.57
2022-08-20T11:04:47.401Z,27.48
2022-08-20T11:06:49.262Z,27.35
2022-08-20T11:08:50.980Z,27.37
2022-08-20T11:10:54.721Z,26.96
2022-08-20T11:12:56.778Z,27.11
2022-08-20T11:14:58.574Z,27.27
2022-08-20T11:17:01.698Z,27.40
2022-08-20T11:19:03.694Z,27.26
2022-08-20T11:21:05.545Z,27.19
2022-08-20T11:23:10.678Z,27.40
2022-08-20T11:25:12.811Z,27.46
2022-08-20T11:27:28.180Z,27.60
2022-08-20T11:29:33.836Z,27.37
2022-08-20T11:31:35.932Z,27.56
2022-08-20T11:33:37.660Z,27.39
2022-08-20T11:35:43.371Z,27.46
2022-08-20T11:37:51.722Z,27.28
2022-08-20T11:39:53.567Z,27.45
2022-08-20T11:41:55.560Z,27.65
2022-08-20T11:44:20.244Z,27.66
2022-08-20T11:46:19.148Z,27.68
2022-08-20T11:48:21.893Z,27.75
2022-08-20T11:50:23.879Z,27.77
2022-08-20T11:52:27.064Z,27.68
2022-08-20T11:54:30.910Z,27.52
2022-08-20T11:56:32.944Z,27.61
2022-08-20T11:58:35.261Z,27.79
2022-08-20T12:00:37.144Z,27.31
2022-08-20T12:02:39.096Z,27.59
2022-08-20T12:04:40.866Z,27.77
2022-08-20T12:06:42.676Z,27.90
2022-08-20T12:08:44.552Z,28.05
2022-08-20T12:10:46.262Z,27.75
2022-08-20T12:12:48.105Z,27.94
2022-08-20T12:14:55.363Z,28.12
2022-08-20T12:16:57.347Z,27.91
2022-08-20T12:18:59.250Z,27.98
2022-08-20T12:21:01.167Z,27.95
2022-08-20T12:23:04.274Z,28.14
2022-08-20T12:25:08.431Z,27.96
2022-08-20T12:27:16.591Z,27.78
2022-08-20T12:29:18.365Z,27.33
2022-08-20T12:31:20.330Z,27.21
2022-08-20T12:33:22.458Z,27.21
2022-08-20T12:35:24.654Z,27.00
2022-08-20T12:37:29.055Z,27.22
2022-08-20T12:39:32.102Z,27.13
2022-08-20T12:41:33.839Z,27.23
2022-08-20T12:43:35.672Z,27.23
2022-08-20T12:45:37.683Z,27.28
2022-08-20T12:47:42.006Z,27.34
2022-08-20T12:49:50.378Z,27.39
2022-08-20T12:51:52.225Z,27.40
2022-08-20T12:53:53.937Z,27.00
2022-08-20T12:55:55.764Z,27.12
2022-08-20T12:57:59.926Z,27.11
2022-08-20T13:00:14.903Z,26.92
2022-08-20T13:02:18.721Z,26.94
2022-08-20T13:04:21.232Z,26.83
2022-08-20T13:06:22.954Z,27.10
2022-08-20T13:08:24.819Z,27.43
2022-08-20T13:10:29.690Z,27.54
2022-08-20T13:12:31.445Z,27.37
2022-08-20T13:14:33.372Z,27.10
2022-08-20T13:16:35.495Z,27.04
2022-08-20T13:18:37.217Z,27.17
2022-08-20T13:20:39.064Z,27.35
2022-08-20T13:22:41.650Z,26.97
2022-08-20T13:24:43.458Z,27.20
2022-08-20T13:26:46.175Z,27.43
2022-08-20T13:28:48.206Z,27.54
2022-08-20T13:30:49.995Z,27.47
2022-08-20T13:32:51.982Z,27.29
2022-08-20T13:34:54.121Z,27.05
2022-08-20T13:36:56.143Z,27.23
2022-08-20T13:38:57.996Z,27.37
2022-08-20T13:40:59.815Z,27.27
2022-08-20T13:43:06.486Z,27.19
2022-08-20T13:45:09.265Z,27.43
2022-08-20T13:47:32.002Z,27.64
2022-08-20T13:49:34.058Z,27.60
2022-08-20T13:51:36.062Z,27.51
2022-08-20T13:53:38.150Z,27.48
2022-08-20T13:55:40.314Z,27.55
2022-08-20T13:57:43.088Z,27.30
2022-08-20T13:59:47.557Z,27.31
2022-08-20T14:01:49.385Z,27.24
2022-08-20T14:03:51.340Z,27.07
2022-08-20T14:05:53.128Z,26.91
2022-08-20T14:07:54.898Z,27.11
2022-08-20T14:10:01.443Z,27.18
2022-08-20T14:12:03.653Z,27.33
2022-08-20T14:14:05.443Z,27.53
2022-08-20T14:16:07.447Z,27.57
2022-08-20T14:18:27.436Z,27.38
2022-08-20T14:20:32.430Z,27.35
2022-08-20T14:22:36.623Z,27.36
2022-08-20T14:24:38.903Z,27.61
2022-08-20T14:26:40.668Z,27.48
2022-08-20T14:28:42.504Z,27.31
2022-08-20T14:30:44.620Z,27.11
2022-08-20T14:32:46.867Z,27.13
2022-08-20T14:34:48.809Z,27.26
2022-08-20T14:36:50.718Z,27.19
2022-08-20T14:38:52.475Z,27.40
2022-08-20T14:40:54.500Z,27.46
2022-08-20T14:42:56.742Z,27.55
2022-08-20T14:44:59.009Z,27.31
2022-08-20T14:47:40.815Z,27.55
2022-08-20T14:49:43.975Z,27.34
2022-08-20T14:51:45.702Z,27.42
2022-08-20T14:53:47.703Z,27.46
2022-08-20T14:55:49.463Z,27.55
2022-08-20T14:57:51.471Z,27.63
2022-08-20T14:59:53.775Z,27.77
2022-08-20T15:01:55.610Z,27.79
2022-08-20T15:03:58.690Z,27.90
2022-08-20T15:06:00.622Z,27.81
2022-08-20T15:08:03.021Z,27.59
2022-08-20T15:10:11.712Z,27.67
2022-08-20T15:12:13.589Z,27.37
2022-08-20T15:14:18.435Z,27.57
2022-08-20T15:16:21.402Z,27.60
2022-08-20T15:18:23.467Z,27.38
2022-08-20T15:20:27.712Z,27.51
2022-08-20T15:22:29.772Z,27.58
2022-08-20T15:24:31.724Z,27.69
2022-08-20T15:26:33.943Z,27.70
2022-08-20T15:28:35.994Z,27.71
2022-08-20T15:30:40.531Z,27.66
2022-08-20T15:32:42.358Z,27.61
2022-08-20T15:34:49.831Z,27.76
2022-08-20T15:36:51.654Z,27.64
2022-08-20T15:38:53.811Z,27.67
2022-08-20T15:40:55.836Z,27.55
2022-08-20T15:42:59.466Z,27.81
2022-08-20T15:45:01.543Z,27.89
2022-08-20T15:47:24.259Z,27.88
2022-08-20T15:49:26.197Z,27.76
2022-08-20T15:51:27.916Z,27.61
2022-08-20T15:53:39.645Z,27.59
2022-08-20T15:55:46.757Z,27.71
2022-08-20T15:58:16.439Z,27.57
2022-08-20T16:00:21.611Z,27.57
2022-08-20T16:03:00.640Z,27.53
2022-08-20T16:05:18.315Z,27.63
2022-08-20T16:07:42.587Z,27.62
2022-08-20T16:10:02.945Z,27.62
2022-08-20T16:12:39.506Z,27.69
2022-08-20T16:14:45.324Z,27.59
2022-08-20T16:17:07.828Z,27.44
2022-08-20T16:19:15.533Z,27.13
2022-08-20T16:21:22.161Z,27.31
2022-08-20T16:23:31.119Z,27.31
2022-08-20T16:25:56.134Z,27.35
2022-08-20T16:28:14.847Z,27.27
2022-08-20T16:30:34.227Z,27.42
2022-08-20T16:32:54.500Z,27.41
2022-08-20T16:35:13.675Z,27.27
2022-08-20T16:37:30.258Z,27.18
2022-08-20T16:39:59.565Z,27.07
2022-08-20T16:42:05.928Z,27.11
2022-08-20T16:44:12.811Z,27.10
2022-08-20T16:46:21.970Z,27.07
2022-08-20T16:48:33.144Z,27.07
2022-08-20T16:50:45.990Z,27.10
2022-08-20T16:52:48.160Z,27.18
2022-08-20T16:54:49.955Z,27.20
2022-08-20T16:57:00.118Z,27.28
2022-08-20T16:59:07.967Z,27.34
2022-08-20T17:01:13.252Z,27.36
2022-08-20T17:03:31.734Z,27.35
2022-08-20T17:05:47.999Z,27.15
2022-08-20T17:08:22.969Z,27.15
2022-08-20T17:10:33.800Z,27.15
2022-08-20T17:12:35.747Z,27.20
2022-08-20T17:14:48.423Z,27.28
2022-08-20T17:16:52.940Z,27.14
2022-08-20T17:19:06.442Z,27.09
2022-08-20T17:21:27.158Z,26.99
2022-08-20T17:23:30.737Z,26.94
2022-08-20T17:25:35.439Z,26.96
2022-08-20T17:27:39.524Z,26.88
2022-08-20T17:29:57.417Z,26.77
2022-08-20T17:32:10.320Z,26.75
2022-08-20T17:34:22.419Z,26.63
2022-08-20T17:36:24.382Z,26.42
2022-08-20T17:38:40.197Z,25.95
2022-08-20T17:40:43.297Z,25.45
2022-08-20T17:42:50.936Z,25.33
2022-08-20T17:45:15.920Z,25.35
2022-08-20T18:00:01.158Z,24.03
2022-08-20T18:02:04.544Z,23.78
2022-08-20T18:04:06.408Z,23.42
2022-08-20T18:06:30.778Z,23.15
2022-08-20T18:08:42.634Z,23.11
2022-08-20T18:11:02.185Z,23.11
2022-08-20T18:13:04.131Z,23.19
2022-08-20T18:15:40.581Z,23.29
2022-08-20T18:17:52.355Z,23.21
2022-08-20T18:20:27.429Z,23.00
2022-08-20T18:22:32.411Z,22.86
2022-08-20T18:24:44.569Z,22.90
2022-08-20T18:26:58.461Z,22.95
2022-08-20T18:29:11.716Z,23.08
2022-08-20T18:31:49.803Z,23.20
2022-08-20T18:33:51.860Z,23.22
2022-08-20T18:36:04.827Z,23.26
2022-08-20T18:38:25.210Z,23.07
2022-08-20T18:40:31.105Z,22.86
2022-08-20T18:42:37.509Z,22.88
2022-08-20T18:44:44.089Z,22.77
2022-08-20T18:46:58.519Z,22.66
2022-08-20T18:49:04.011Z,22.79
2022-08-20T18:51:10.656Z,22.95
2022-08-20T18:53:22.494Z,23.05
2022-08-20T18:55:40.732Z,23.18
2022-08-20T18:57:59.395Z,23.19
2022-08-20T19:00:15.830Z,22.84
2022-08-20T19:02:26.898Z,22.73
2022-08-20T19:04:31.510Z,22.71
2022-08-20T19:06:46.629Z,22.84
2022-08-20T19:09:18.325Z,22.69
2022-08-20T19:11:50.973Z,22.54
2022-08-20T19:14:20.963Z,22.52
2022-08-20T19:16:32.936Z,22.46
2022-08-20T19:18:52.060Z,22.56
2022-08-20T19:20:59.323Z,22.73
2022-08-20T19:23:12.274Z,22.78
2022-08-20T19:25:27.417Z,22.84
2022-08-20T19:27:30.045Z,22.93
2022-08-20T19:29:37.327Z,23.02
2022-08-20T19:31:39.541Z,23.05
2022-08-20T19:33:44.548Z,23.06
2022-08-20T19:35:46.428Z,23.00
2022-08-20T19:37:51.137Z,22.81
2022-08-20T19:39:54.367Z,22.82
2022-08-20T19:42:14.182Z,22.73
2022-08-20T19:44:53.340Z,22.47
2022-08-20T19:46:56.216Z,22.37
2022-08-20T19:49:18.161Z,22.00
2022-08-20T19:51:57.300Z,21.64
2022-08-20T19:53:59.094Z,21.53
2022-08-20T19:56:14.222Z,21.69
2022-08-20T19:58:26.100Z,21.75
2022-08-20T20:00:38.325Z,21.84
2022-08-20T20:02:40.172Z,21.93
2022-08-20T20:04:55.045Z,22.00
2022-08-20T20:06:59.749Z,22.09
2022-08-20T20:09:05.466Z,22.06
2022-08-20T20:11:07.596Z,22.11
2022-08-20T20:13:12.454Z,22.11
2022-08-20T20:15:14.242Z,22.01
2022-08-20T20:17:23.355Z,21.98
2022-08-20T20:19:27.255Z,21.89
2022-08-20T20:22:04.766Z,21.96
2022-08-20T20:24:06.852Z,21.66
2022-08-20T20:26:15.952Z,21.72
2022-08-20T20:28:26.207Z,21.71
2022-08-20T20:30:33.760Z,21.86
2022-08-20T20:32:40.242Z,22.02
2022-08-20T20:34:54.939Z,21.97
2022-08-20T20:37:08.415Z,22.11
2022-08-20T20:39:30.137Z,22.25
2022-08-20T20:41:34.609Z,22.25
2022-08-20T20:43:41.796Z,22.27
2022-08-20T20:45:46.508Z,22.32
2022-08-20T20:47:52.650Z,22.35
2022-08-20T20:50:00.782Z,22.36
2022-08-20T20:52:17.438Z,22.46
2022-08-20T20:54:30.208Z,22.49
2022-08-20T20:56:35.479Z,22.57
2022-08-20T20:58:37.234Z,22.66
2022-08-20T21:00:38.985Z,22.72
2022-08-20T21:02:41.491Z,22.70
2022-08-20T21:04:43.368Z,22.76
2022-08-20T21:06:45.120Z,22.83
2022-08-20T21:08:46.959Z,22.84
2022-08-20T21:10:48.686Z,22.82
2022-08-20T21:12:53.186Z,22.62
2022-08-20T21:14:55.957Z,22.45
2022-08-20T21:17:03.005Z,22.40
2022-08-20T21:19:06.183Z,22.22
2022-08-20T21:21:09.141Z,22.02
2022-08-20T21:23:10.959Z,22.18
2022-08-20T21:25:12.761Z,22.18
2022-08-20T21:27:14.750Z,22.20
2022-08-20T21:29:21.344Z,22.18
2022-08-20T21:31:30.417Z,22.07
2022-08-20T21:33:32.880Z,22.13
2022-08-20T21:35:34.612Z,22.10
2022-08-20T21:37:36.636Z,22.02
2022-08-20T21:39:38.896Z,22.07
2022-08-20T21:41:43.023Z,22.07
2022-08-20T21:43:44.796Z,21.94
2022-08-20T21:45:51.605Z,21.91
2022-08-20T21:47:53.969Z,21.85
2022-08-20T21:49:55.791Z,21.71
2022-08-20T21:51:58.613Z,21.68
2022-08-20T21:54:00.344Z,21.73
2022-08-20T21:56:02.526Z,21.87
2022-08-20T21:58:04.922Z,22.05
2022-08-20T22:00:16.566Z,22.12
2022-08-20T22:02:19.133Z,22.09
2022-08-20T22:04:21.376Z,21.94
2022-08-20T22:06:23.157Z,22.01
2022-08-20T22:08:28.326Z,22.08
2022-08-20T22:10:30.729Z,22.03
2022-08-20T22:12:32.497Z,22.26
2022-08-20T22:14:34.255Z,22.27
2022-08-20T22:16:36.293Z,22.36
2022-08-20T22:18:38.481Z,22.39
2022-08-20T22:20:41.342Z,22.39
2022-08-20T22:22:45.976Z,22.48
2022-08-20T22:24:47.901Z,22.48
2022-08-20T22:26:49.695Z,22.51
2022-08-20T22:28:51.802Z,22.46
2022-08-20T22:30:53.605Z,22.08
2022-08-20T22:33:02.073Z,21.72
2022-08-20T22:35:05.295Z,21.49
2022-08-20T22:37:07.356Z,21.16
2022-08-20T22:39:09.684Z,20.92
2022-08-20T22:41:11.707Z,20.81
2022-08-20T22:43:14.487Z,20.88
2022-08-20T22:45:16.361Z,20.88
2022-08-20T22:47:22.293Z,20.77
2022-08-20T22:49:29.296Z,20.86
2022-08-20T22:51:35.061Z,21.01
2022-08-20T22:53:37.682Z,21.14
2022-08-20T22:55:39.517Z,21.05
2022-08-20T22:57:41.392Z,21.18
2022-08-20T22:59:45.871Z,21.16
2022-08-20T23:01:54.958Z,21.22
2022-08-20T23:04:05.513Z,21.30
2022-08-20T23:06:09.958Z,21.25
2022-08-20T23:08:11.930Z,21.19
2022-08-20T23:10:13.978Z,21.15
2022-08-20T23:12:16.157Z,20.99
2022-08-20T23:14:17.973Z,20.78
2022-08-20T23:16:19.781Z,20.96
2022-08-20T23:18:21.994Z,21.16
2022-08-20T23:20:24.125Z,21.30
2022-08-20T23:22:26.136Z,21.40
2022-08-20T23:24:28.314Z,21.49
2022-08-20T23:26:30.073Z,21.38
2022-08-20T23:28:32.334Z,21.26
2022-08-20T23:30:35.029Z,21.30
2022-08-20T23:32:38.441Z,21.31
2022-08-20T23:34:40.417Z,21.38
2022-08-20T23:36:43.260Z,21.35
2022-08-20T23:38:45.439Z,21.19
2022-08-20T23:40:47.182Z,21.12
2022-08-20T23:42:49.193Z,21.20
2022-08-20T23:44:50.934Z,21.26
2022-08-20T23:46:54.683Z,21.31
2022-08-20T23:48:56.907Z,21.45
2022-08-20T23:50:58.661Z,21.49
2022-08-20T23:53:00.465Z,21.52
2022-08-20T23:55:02.691Z,21.47
2022-08-20T23:57:08.305Z,21.47
2022-08-20T23:59:10.402Z,21.49
